sensor_id;sensor_type;location;lat;lon;timestamp;P1;durP1;ratioP1;P2;durP2;ratioP2
22191;SDS011;11261;52.456;10.850;2024-03-23T00:54:53;9.02;;;3.75;;
22191;SDS011;11261;52.456;10.850;2024-03-23T00:57:20;10.30;;;3.47;;
22191;SDS011;11261;52.456;10.850;2024-03-23T00:59:48;11.35;;;3.60;;
22191;SDS011;11261;52.456;10.850;2024-03-23T01:02:15;10.18;;;3.20;;
22191;SDS011;11261;52.456;10.850;2024-03-23T01:04:42;9.73;;;3.95;;
22191;SDS011;11261;52.456;10.850;2024-03-23T01:07:09;10.93;;;3.72;;
22191;SDS011;11261;52.456;10.850;2024-03-23T01:09:36;8.23;;;3.78;;
22191;SDS011;11261;52.456;10.850;2024-03-23T01:12:05;7.38;;;3.63;;
22191;SDS011;11261;52.456;10.850;2024-03-23T01:14:33;12.90;;;4.05;;
22191;SDS011;11261;52.456;10.850;2024-03-23T01:17:01;8.15;;;3.80;;
22191;SDS011;11261;52.456;10.850;2024-03-23T01:19:29;11.60;;;3.50;;
22191;SDS011;11261;52.456;10.850;2024-03-23T01:21:55;9.98;;;3.55;;
22191;SDS011;11261;52.456;10.850;2024-03-23T01:24:23;7.22;;;2.67;;
22191;SDS011;11261;52.456;10.850;2024-03-23T01:26:49;5.88;;;2.40;;
22191;SDS011;11261;52.456;10.850;2024-03-23T01:29:18;8.05;;;2.70;;
22191;SDS011;11261;52.456;10.850;2024-03-23T01:31:45;8.02;;;3.00;;
22191;SDS011;11261;52.456;10.850;2024-03-23T01:34:12;11.40;;;3.55;;
22191;SDS011;11261;52.456;10.850;2024-03-23T01:36:39;9.43;;;3.60;;
22191;SDS011;11261;52.456;10.850;2024-03-23T01:39:06;10.65;;;4.10;;
22191;SDS011;11261;52.456;10.850;2024-03-23T01:41:35;11.18;;;3.85;;
22191;SDS011;11261;52.456;10.850;2024-03-23T01:44:05;8.88;;;3.35;;
22191;SDS011;11261;52.456;10.850;2024-03-23T01:46:33;7.22;;;3.33;;
22191;SDS011;11261;52.456;10.850;2024-03-23T01:49:01;10.63;;;3.58;;
22191;SDS011;11261;52.456;10.850;2024-03-23T01:51:28;5.97;;;3.17;;
22191;SDS011;11261;52.456;10.850;2024-03-23T01:53:56;7.72;;;3.33;;
22191;SDS011;11261;52.456;10.850;2024-03-23T01:56:23;9.43;;;3.55;;
22191;SDS011;11261;52.456;10.850;2024-03-23T01:58:50;11.70;;;3.47;;
22191;SDS011;11261;52.456;10.850;2024-03-23T02:01:16;8.10;;;3.13;;
22191;SDS011;11261;52.456;10.850;2024-03-23T02:03:46;7.65;;;3.85;;
22191;SDS011;11261;52.456;10.850;2024-03-23T02:06:13;8.52;;;3.28;;
22191;SDS011;11261;52.456;10.850;2024-03-23T02:08:40;8.80;;;3.40;;
22191;SDS011;11261;52.456;10.850;2024-03-23T02:11:07;8.00;;;3.63;;
22191;SDS011;11261;52.456;10.850;2024-03-23T02:13:34;11.13;;;3.40;;
22191;SDS011;11261;52.456;10.850;2024-03-23T02:16:01;7.90;;;2.80;;
22191;SDS011;11261;52.456;10.850;2024-03-23T02:18:29;6.55;;;3.20;;
22191;SDS011;11261;52.456;10.850;2024-03-23T02:20:57;7.63;;;2.85;;
22191;SDS011;11261;52.456;10.850;2024-03-23T02:23:27;8.40;;;2.72;;
22191;SDS011;11261;52.456;10.850;2024-03-23T02:25:53;5.70;;;2.45;;
22191;SDS011;11261;52.456;10.850;2024-03-23T02:28:21;11.80;;;2.78;;
22191;SDS011;11261;52.456;10.850;2024-03-23T02:30:48;9.80;;;2.75;;
22191;SDS011;11261;52.456;10.850;2024-03-23T02:33:15;10.38;;;2.17;;
22191;SDS011;11261;52.456;10.850;2024-03-23T02:35:43;6.45;;;2.33;;
22191;SDS011;11261;52.456;10.850;2024-03-23T02:38:10;7.55;;;2.30;;
22191;SDS011;11261;52.456;10.850;2024-03-23T02:40:38;3.40;;;2.03;;
22191;SDS011;11261;52.456;10.850;2024-03-23T02:43:06;6.10;;;2.40;;
22191;SDS011;11261;52.456;10.850;2024-03-23T02:45:33;6.00;;;2.13;;
22191;SDS011;11261;52.456;10.850;2024-03-23T02:48:00;8.35;;;2.50;;
22191;SDS011;11261;52.456;10.850;2024-03-23T02:50:27;5.72;;;2.17;;
22191;SDS011;11261;52.456;10.850;2024-03-23T02:52:54;9.13;;;2.70;;
22191;SDS011;11261;52.456;10.850;2024-03-23T02:55:21;6.50;;;2.00;;
22191;SDS011;11261;52.456;10.850;2024-03-23T02:57:50;7.15;;;1.98;;
22191;SDS011;11261;52.456;10.850;2024-03-23T03:00:17;8.07;;;1.90;;
22191;SDS011;11261;52.456;10.850;2024-03-23T03:02:45;6.00;;;2.22;;
22191;SDS011;11261;52.456;10.850;2024-03-23T03:05:12;4.78;;;2.10;;
22191;SDS011;11261;52.456;10.850;2024-03-23T03:07:39;6.15;;;1.77;;
22191;SDS011;11261;52.456;10.850;2024-03-23T03:10:06;9.15;;;1.90;;
22191;SDS011;11261;52.456;10.850;2024-03-23T03:12:36;5.38;;;1.70;;
22191;SDS011;11261;52.456;10.850;2024-03-23T03:15:05;8.40;;;2.53;;
22191;SDS011;11261;52.456;10.850;2024-03-23T03:17:33;6.13;;;1.90;;
22191;SDS011;11261;52.456;10.850;2024-03-23T03:20:00;5.78;;;1.80;;
22191;SDS011;11261;52.456;10.850;2024-03-23T03:22:30;3.67;;;2.00;;
22191;SDS011;11261;52.456;10.850;2024-03-23T03:24:56;5.43;;;2.10;;
22191;SDS011;11261;52.456;10.850;2024-03-23T03:27:25;5.47;;;1.75;;
22191;SDS011;11261;52.456;10.850;2024-03-23T03:29:52;6.03;;;2.03;;
22191;SDS011;11261;52.456;10.850;2024-03-23T03:32:21;8.95;;;2.10;;
22191;SDS011;11261;52.456;10.850;2024-03-23T03:34:48;7.43;;;1.83;;
22191;SDS011;11261;52.456;10.850;2024-03-23T03:37:15;6.43;;;1.70;;
22191;SDS011;11261;52.456;10.850;2024-03-23T03:39:42;5.38;;;2.25;;
22191;SDS011;11261;52.456;10.850;2024-03-23T03:42:10;9.70;;;2.05;;
22191;SDS011;11261;52.456;10.850;2024-03-23T03:44:37;5.47;;;1.80;;
22191;SDS011;11261;52.456;10.850;2024-03-23T03:47:05;5.90;;;1.70;;
22191;SDS011;11261;52.456;10.850;2024-03-23T03:49:33;4.75;;;1.63;;
22191;SDS011;11261;52.456;10.850;2024-03-23T03:52:01;5.40;;;1.67;;
22191;SDS011;11261;52.456;10.850;2024-03-23T03:54:28;9.20;;;1.83;;
22191;SDS011;11261;52.456;10.850;2024-03-23T03:56:55;4.18;;;1.95;;
22191;SDS011;11261;52.456;10.850;2024-03-23T03:59:22;7.32;;;2.10;;
22191;SDS011;11261;52.456;10.850;2024-03-23T04:01:50;7.75;;;2.05;;
22191;SDS011;11261;52.456;10.850;2024-03-23T04:04:16;5.47;;;1.73;;
22191;SDS011;11261;52.456;10.850;2024-03-23T04:06:47;6.60;;;1.90;;
22191;SDS011;11261;52.456;10.850;2024-03-23T04:09:14;6.18;;;1.90;;
22191;SDS011;11261;52.456;10.850;2024-03-23T04:11:42;5.68;;;1.88;;
22191;SDS011;11261;52.456;10.850;2024-03-23T04:14:08;8.00;;;2.13;;
22191;SDS011;11261;52.456;10.850;2024-03-23T04:16:36;11.20;;;1.88;;
22191;SDS011;11261;52.456;10.850;2024-03-23T04:19:02;7.68;;;1.98;;
22191;SDS011;11261;52.456;10.850;2024-03-23T04:21:30;5.90;;;2.03;;
22191;SDS011;11261;52.456;10.850;2024-03-23T04:23:58;5.65;;;2.10;;
22191;SDS011;11261;52.456;10.850;2024-03-23T04:26:25;7.50;;;2.17;;
22191;SDS011;11261;52.456;10.850;2024-03-23T04:28:53;10.35;;;2.20;;
22191;SDS011;11261;52.456;10.850;2024-03-23T04:31:21;10.05;;;2.30;;
22191;SDS011;11261;52.456;10.850;2024-03-23T04:33:47;5.70;;;1.98;;
22191;SDS011;11261;52.456;10.850;2024-03-23T04:36:15;7.25;;;2.55;;
22191;SDS011;11261;52.456;10.850;2024-03-23T04:38:42;8.23;;;2.72;;
22191;SDS011;11261;52.456;10.850;2024-03-23T04:41:12;7.40;;;2.85;;
22191;SDS011;11261;52.456;10.850;2024-03-23T04:43:40;7.97;;;2.50;;
22191;SDS011;11261;52.456;10.850;2024-03-23T04:46:07;10.10;;;3.30;;
22191;SDS011;11261;52.456;10.850;2024-03-23T04:48:35;12.02;;;2.75;;
22191;SDS011;11261;52.456;10.850;2024-03-23T04:51:03;6.72;;;2.70;;
22191;SDS011;11261;52.456;10.850;2024-03-23T04:53:31;10.32;;;2.83;;
22191;SDS011;11261;52.456;10.850;2024-03-23T04:55:58;6.13;;;2.22;;
22191;SDS011;11261;52.456;10.850;2024-03-23T04:58:28;7.93;;;2.47;;
22191;SDS011;11261;52.456;10.850;2024-03-23T05:00:54;9.88;;;2.67;;
22191;SDS011;11261;52.456;10.850;2024-03-23T05:03:23;8.30;;;2.38;;
22191;SDS011;11261;52.456;10.850;2024-03-23T05:05:49;7.22;;;2.65;;
22191;SDS011;11261;52.456;10.850;2024-03-23T05:08:18;5.57;;;2.33;;
22191;SDS011;11261;52.456;10.850;2024-03-23T05:10:44;10.93;;;2.55;;
22191;SDS011;11261;52.456;10.850;2024-03-23T05:13:12;8.00;;;2.47;;
22191;SDS011;11261;52.456;10.850;2024-03-23T05:15:40;7.25;;;2.42;;
22191;SDS011;11261;52.456;10.850;2024-03-23T05:18:08;8.55;;;2.20;;
22191;SDS011;11261;52.456;10.850;2024-03-23T05:20:34;7.05;;;2.35;;
22191;SDS011;11261;52.456;10.850;2024-03-23T05:23:02;8.77;;;2.55;;
22191;SDS011;11261;52.456;10.850;2024-03-23T05:25:29;9.73;;;2.60;;
22191;SDS011;11261;52.456;10.850;2024-03-23T05:27:56;9.18;;;2.90;;
22191;SDS011;11261;52.456;10.850;2024-03-23T05:30:23;5.93;;;2.35;;
22191;SDS011;11261;52.456;10.850;2024-03-23T05:32:52;5.30;;;2.45;;
22191;SDS011;11261;52.456;10.850;2024-03-23T05:35:19;7.40;;;2.65;;
22191;SDS011;11261;52.456;10.850;2024-03-23T05:37:46;3.97;;;1.83;;
22191;SDS011;11261;52.456;10.850;2024-03-23T05:40:13;6.55;;;2.40;;
22191;SDS011;11261;52.456;10.850;2024-03-23T05:42:41;9.23;;;2.60;;
22191;SDS011;11261;52.456;10.850;2024-03-23T05:45:08;5.18;;;2.17;;
22191;SDS011;11261;52.456;10.850;2024-03-23T05:47:36;7.43;;;2.33;;
22191;SDS011;11261;52.456;10.850;2024-03-23T05:50:05;7.57;;;2.30;;
22191;SDS011;11261;52.456;10.850;2024-03-23T05:52:35;12.32;;;2.47;;
22191;SDS011;11261;52.456;10.850;2024-03-23T05:55:02;7.68;;;2.38;;
22191;SDS011;11261;52.456;10.850;2024-03-23T05:57:29;4.45;;;2.00;;
22191;SDS011;11261;52.456;10.850;2024-03-23T05:59:56;5.60;;;2.55;;
22191;SDS011;11261;52.456;10.850;2024-03-23T06:02:24;8.25;;;2.25;;
22191;SDS011;11261;52.456;10.850;2024-03-23T06:04:50;8.55;;;2.08;;
22191;SDS011;11261;52.456;10.850;2024-03-23T06:07:19;9.25;;;2.83;;
22191;SDS011;11261;52.456;10.850;2024-03-23T06:09:46;8.50;;;2.75;;
22191;SDS011;11261;52.456;10.850;2024-03-23T06:12:16;7.00;;;2.05;;
22191;SDS011;11261;52.456;10.850;2024-03-23T06:14:43;3.38;;;1.60;;
22191;SDS011;11261;52.456;10.850;2024-03-23T06:17:10;9.82;;;2.08;;
22191;SDS011;11261;52.456;10.850;2024-03-23T06:19:37;8.93;;;2.00;;
22191;SDS011;11261;52.456;10.850;2024-03-23T06:22:04;7.10;;;2.22;;
22191;SDS011;11261;52.456;10.850;2024-03-23T06:24:33;7.65;;;1.83;;
22191;SDS011;11261;52.456;10.850;2024-03-23T06:27:01;6.80;;;1.80;;
22191;SDS011;11261;52.456;10.850;2024-03-23T06:29:27;5.80;;;1.50;;
22191;SDS011;11261;52.456;10.850;2024-03-23T06:31:55;5.78;;;1.40;;
22191;SDS011;11261;52.456;10.850;2024-03-23T06:34:22;5.82;;;1.20;;
22191;SDS011;11261;52.456;10.850;2024-03-23T06:36:49;7.28;;;1.60;;
22191;SDS011;11261;52.456;10.850;2024-03-23T06:39:16;5.93;;;1.85;;
22191;SDS011;11261;52.456;10.850;2024-03-23T06:41:51;5.90;;;1.08;;
22191;SDS011;11261;52.456;10.850;2024-03-23T06:44:18;2.75;;;1.00;;
22191;SDS011;11261;52.456;10.850;2024-03-23T06:46:46;4.57;;;1.35;;
22191;SDS011;11261;52.456;10.850;2024-03-23T06:49:14;4.57;;;1.30;;
22191;SDS011;11261;52.456;10.850;2024-03-23T06:51:41;6.40;;;1.10;;
22191;SDS011;11261;52.456;10.850;2024-03-23T06:54:08;6.55;;;1.60;;
22191;SDS011;11261;52.456;10.850;2024-03-23T06:56:35;6.47;;;1.40;;
22191;SDS011;11261;52.456;10.850;2024-03-23T06:59:03;4.15;;;1.40;;
22191;SDS011;11261;52.456;10.850;2024-03-23T07:01:31;5.80;;;1.45;;
22191;SDS011;11261;52.456;10.850;2024-03-23T07:03:57;6.55;;;1.30;;
22191;SDS011;11261;52.456;10.850;2024-03-23T07:06:25;6.97;;;1.80;;
22191;SDS011;11261;52.456;10.850;2024-03-23T07:08:52;6.93;;;1.65;;
22191;SDS011;11261;52.456;10.850;2024-03-23T07:11:19;3.50;;;1.00;;
22191;SDS011;11261;52.456;10.850;2024-03-23T07:13:49;5.03;;;1.10;;
22191;SDS011;11261;52.456;10.850;2024-03-23T07:16:18;5.03;;;1.63;;
22191;SDS011;11261;52.456;10.850;2024-03-23T07:18:45;3.05;;;1.40;;
22191;SDS011;11261;52.456;10.850;2024-03-23T07:21:12;3.38;;;1.25;;
22191;SDS011;11261;52.456;10.850;2024-03-23T07:23:41;6.00;;;1.27;;
22191;SDS011;11261;52.456;10.850;2024-03-23T07:26:10;4.35;;;1.83;;
22191;SDS011;11261;52.456;10.850;2024-03-23T07:28:37;7.13;;;1.65;;
22191;SDS011;11261;52.456;10.850;2024-03-23T07:31:09;6.15;;;1.65;;
22191;SDS011;11261;52.456;10.850;2024-03-23T07:33:41;5.20;;;1.60;;
22191;SDS011;11261;52.456;10.850;2024-03-23T07:36:09;4.97;;;1.55;;
22191;SDS011;11261;52.456;10.850;2024-03-23T07:38:36;10.05;;;1.90;;
22191;SDS011;11261;52.456;10.850;2024-03-23T07:41:04;7.43;;;1.73;;
22191;SDS011;11261;52.456;10.850;2024-03-23T07:43:31;2.83;;;1.45;;
22191;SDS011;11261;52.456;10.850;2024-03-23T07:45:58;4.72;;;1.42;;
22191;SDS011;11261;52.456;10.850;2024-03-23T07:48:26;6.65;;;1.80;;
22191;SDS011;11261;52.456;10.850;2024-03-23T07:51:01;6.22;;;1.83;;
22191;SDS011;11261;52.456;10.850;2024-03-23T07:53:29;6.95;;;1.40;;
22191;SDS011;11261;52.456;10.850;2024-03-23T07:55:57;9.88;;;1.58;;
22191;SDS011;11261;52.456;10.850;2024-03-23T07:58:24;6.57;;;1.50;;
22191;SDS011;11261;52.456;10.850;2024-03-23T08:00:52;12.60;;;1.55;;
22191;SDS011;11261;52.456;10.850;2024-03-23T08:03:19;8.82;;;1.58;;
22191;SDS011;11261;52.456;10.850;2024-03-23T08:05:46;8.18;;;1.63;;
22191;SDS011;11261;52.456;10.850;2024-03-23T08:08:15;5.93;;;1.48;;
22191;SDS011;11261;52.456;10.850;2024-03-23T08:10:48;6.90;;;1.45;;
22191;SDS011;11261;52.456;10.850;2024-03-23T08:13:16;4.93;;;1.48;;
22191;SDS011;11261;52.456;10.850;2024-03-23T08:15:43;6.97;;;2.08;;
22191;SDS011;11261;52.456;10.850;2024-03-23T08:18:12;6.63;;;1.63;;
22191;SDS011;11261;52.456;10.850;2024-03-23T08:20:39;4.75;;;1.67;;
22191;SDS011;11261;52.456;10.850;2024-03-23T08:23:07;8.23;;;1.50;;
22191;SDS011;11261;52.456;10.850;2024-03-23T08:25:36;6.65;;;1.58;;
22191;SDS011;11261;52.456;10.850;2024-03-23T08:28:03;7.97;;;1.40;;
22191;SDS011;11261;52.456;10.850;2024-03-23T08:30:30;4.00;;;1.45;;
22191;SDS011;11261;52.456;10.850;2024-03-23T08:32:57;5.10;;;2.13;;
22191;SDS011;11261;52.456;10.850;2024-03-23T08:35:24;8.63;;;1.52;;
22191;SDS011;11261;52.456;10.850;2024-03-23T08:37:52;4.57;;;1.35;;
22191;SDS011;11261;52.456;10.850;2024-03-23T08:40:18;5.05;;;1.58;;
22191;SDS011;11261;52.456;10.850;2024-03-23T08:42:47;8.10;;;1.55;;
22191;SDS011;11261;52.456;10.850;2024-03-23T08:45:14;6.32;;;1.40;;
22191;SDS011;11261;52.456;10.850;2024-03-23T08:47:41;3.40;;;1.30;;
22191;SDS011;11261;52.456;10.850;2024-03-23T08:50:08;5.63;;;1.80;;
22191;SDS011;11261;52.456;10.850;2024-03-23T08:52:36;5.68;;;1.58;;
22191;SDS011;11261;52.456;10.850;2024-03-23T08:55:03;8.38;;;1.58;;
22191;SDS011;11261;52.456;10.850;2024-03-23T08:57:31;4.97;;;1.30;;
22191;SDS011;11261;52.456;10.850;2024-03-23T08:59:59;8.57;;;1.60;;
22191;SDS011;11261;52.456;10.850;2024-03-23T09:02:27;6.97;;;1.27;;
22191;SDS011;11261;52.456;10.850;2024-03-23T09:04:53;5.35;;;1.13;;
22191;SDS011;11261;52.456;10.850;2024-03-23T09:07:21;5.22;;;1.30;;
22191;SDS011;11261;52.456;10.850;2024-03-23T09:09:47;6.30;;;1.08;;
22191;SDS011;11261;52.456;10.850;2024-03-23T09:12:15;2.88;;;0.95;;
22191;SDS011;11261;52.456;10.850;2024-03-23T09:14:42;2.85;;;0.88;;
22191;SDS011;11261;52.456;10.850;2024-03-23T09:17:10;6.60;;;1.40;;
22191;SDS011;11261;52.456;10.850;2024-03-23T09:19:38;6.82;;;1.70;;
22191;SDS011;11261;52.456;10.850;2024-03-23T09:22:06;5.95;;;1.27;;
22191;SDS011;11261;52.456;10.850;2024-03-23T09:24:33;6.28;;;1.63;;
22191;SDS011;11261;52.456;10.850;2024-03-23T09:27:01;7.68;;;1.27;;
22191;SDS011;11261;52.456;10.850;2024-03-23T09:29:28;6.93;;;1.88;;
22191;SDS011;11261;52.456;10.850;2024-03-23T09:31:56;11.13;;;1.83;;
22191;SDS011;11261;52.456;10.850;2024-03-23T09:34:24;7.93;;;1.80;;
22191;SDS011;11261;52.456;10.850;2024-03-23T09:36:52;8.65;;;2.05;;
22191;SDS011;11261;52.456;10.850;2024-03-23T09:39:18;7.00;;;2.00;;
22191;SDS011;11261;52.456;10.850;2024-03-23T09:41:46;5.80;;;2.17;;
22191;SDS011;11261;52.456;10.850;2024-03-23T09:44:13;7.15;;;2.50;;
22191;SDS011;11261;52.456;10.850;2024-03-23T09:46:40;10.30;;;3.00;;
22191;SDS011;11261;52.456;10.850;2024-03-23T09:49:07;12.15;;;2.80;;
22191;SDS011;11261;52.456;10.850;2024-03-23T09:51:37;14.15;;;2.88;;
22191;SDS011;11261;52.456;10.850;2024-03-23T09:54:04;7.53;;;3.08;;
22191;SDS011;11261;52.456;10.850;2024-03-23T09:56:31;8.55;;;2.80;;
22191;SDS011;11261;52.456;10.850;2024-03-23T09:59:01;10.20;;;3.13;;
22191;SDS011;11261;52.456;10.850;2024-03-23T10:01:29;11.88;;;3.20;;
22191;SDS011;11261;52.456;10.850;2024-03-23T10:03:56;16.92;;;2.80;;
22191;SDS011;11261;52.456;10.850;2024-03-23T10:06:23;13.90;;;3.28;;
22191;SDS011;11261;52.456;10.850;2024-03-23T10:08:53;10.35;;;3.08;;
22191;SDS011;11261;52.456;10.850;2024-03-23T10:11:20;18.33;;;3.58;;
22191;SDS011;11261;52.456;10.850;2024-03-23T10:13:47;10.60;;;3.20;;
22191;SDS011;11261;52.456;10.850;2024-03-23T10:16:22;9.30;;;2.83;;
22191;SDS011;11261;52.456;10.850;2024-03-23T10:18:49;14.15;;;2.97;;
22191;SDS011;11261;52.456;10.850;2024-03-23T10:21:16;10.30;;;3.03;;
22191;SDS011;11261;52.456;10.850;2024-03-23T10:23:44;13.77;;;3.35;;
22191;SDS011;11261;52.456;10.850;2024-03-23T10:26:13;10.75;;;3.05;;
22191;SDS011;11261;52.456;10.850;2024-03-23T10:28:53;14.40;;;3.25;;
22191;SDS011;11261;52.456;10.850;2024-03-23T10:31:22;14.02;;;2.67;;
22191;SDS011;11261;52.456;10.850;2024-03-23T10:33:49;8.68;;;2.80;;
22191;SDS011;11261;52.456;10.850;2024-03-23T10:36:19;15.82;;;4.20;;
22191;SDS011;11261;52.456;10.850;2024-03-23T10:38:46;9.52;;;2.78;;
22191;SDS011;11261;52.456;10.850;2024-03-23T10:41:15;15.20;;;3.15;;
22191;SDS011;11261;52.456;10.850;2024-03-23T10:43:42;15.30;;;2.95;;
22191;SDS011;11261;52.456;10.850;2024-03-23T10:46:10;12.35;;;2.97;;
22191;SDS011;11261;52.456;10.850;2024-03-23T10:48:36;10.45;;;2.38;;
22191;SDS011;11261;52.456;10.850;2024-03-23T10:51:04;12.30;;;2.72;;
22191;SDS011;11261;52.456;10.850;2024-03-23T10:53:32;9.73;;;2.67;;
22191;SDS011;11261;52.456;10.850;2024-03-23T10:56:01;11.55;;;2.35;;
22191;SDS011;11261;52.456;10.850;2024-03-23T10:58:28;9.48;;;3.13;;
22191;SDS011;11261;52.456;10.850;2024-03-23T11:00:58;7.85;;;2.20;;
22191;SDS011;11261;52.456;10.850;2024-03-23T11:03:31;11.48;;;2.45;;
22191;SDS011;11261;52.456;10.850;2024-03-23T11:05:59;9.27;;;2.47;;
22191;SDS011;11261;52.456;10.850;2024-03-23T11:08:30;4.47;;;2.25;;
22191;SDS011;11261;52.456;10.850;2024-03-23T11:13:44;7.03;;;2.50;;
22191;SDS011;11261;52.456;10.850;2024-03-23T11:16:15;9.55;;;2.00;;
22191;SDS011;11261;52.456;10.850;2024-03-23T11:18:43;6.05;;;2.15;;
22191;SDS011;11261;52.456;10.850;2024-03-23T11:21:10;7.25;;;2.10;;
22191;SDS011;11261;52.456;10.850;2024-03-23T11:23:37;5.95;;;1.67;;
22191;SDS011;11261;52.456;10.850;2024-03-23T11:26:07;8.73;;;1.83;;
22191;SDS011;11261;52.456;10.850;2024-03-23T11:28:34;5.63;;;1.60;;
22191;SDS011;11261;52.456;10.850;2024-03-23T11:31:10;7.55;;;1.73;;
22191;SDS011;11261;52.456;10.850;2024-03-23T11:33:36;9.20;;;1.80;;
22191;SDS011;11261;52.456;10.850;2024-03-23T11:36:04;8.10;;;1.80;;
22191;SDS011;11261;52.456;10.850;2024-03-23T11:38:31;7.68;;;1.90;;
22191;SDS011;11261;52.456;10.850;2024-03-23T11:41:04;5.80;;;2.13;;
22191;SDS011;11261;52.456;10.850;2024-03-23T11:43:30;5.38;;;0.90;;
22191;SDS011;11261;52.456;10.850;2024-03-23T11:45:58;6.30;;;2.03;;
22191;SDS011;11261;52.456;10.850;2024-03-23T11:48:30;4.05;;;1.42;;
22191;SDS011;11261;52.456;10.850;2024-03-23T11:50:58;1.88;;;1.27;;
22191;SDS011;11261;52.456;10.850;2024-03-23T11:53:25;2.08;;;1.10;;
22191;SDS011;11261;52.456;10.850;2024-03-23T11:55:55;2.90;;;1.33;;
22191;SDS011;11261;52.456;10.850;2024-03-23T11:58:22;3.53;;;1.38;;
22191;SDS011;11261;52.456;10.850;2024-03-23T12:00:50;4.85;;;1.42;;
22191;SDS011;11261;52.456;10.850;2024-03-23T12:03:17;4.53;;;1.55;;
22191;SDS011;11261;52.456;10.850;2024-03-23T12:05:52;3.83;;;1.67;;
22191;SDS011;11261;52.456;10.850;2024-03-23T12:08:23;2.13;;;0.95;;
22191;SDS011;11261;52.456;10.850;2024-03-23T12:10:51;2.05;;;0.77;;
22191;SDS011;11261;52.456;10.850;2024-03-23T12:13:18;3.08;;;1.00;;
22191;SDS011;11261;52.456;10.850;2024-03-23T12:15:46;6.60;;;1.40;;
22191;SDS011;11261;52.456;10.850;2024-03-23T12:18:13;2.80;;;0.93;;
22191;SDS011;11261;52.456;10.850;2024-03-23T12:20:40;2.60;;;0.95;;
22191;SDS011;11261;52.456;10.850;2024-03-23T12:23:09;3.83;;;0.90;;
22191;SDS011;11261;52.456;10.850;2024-03-23T12:25:38;4.80;;;0.93;;
22191;SDS011;11261;52.456;10.850;2024-03-23T12:28:06;4.93;;;0.93;;
22191;SDS011;11261;52.456;10.850;2024-03-23T12:30:34;2.47;;;1.27;;
22191;SDS011;11261;52.456;10.850;2024-03-23T12:33:01;1.70;;;1.00;;
22191;SDS011;11261;52.456;10.850;2024-03-23T12:35:30;0.98;;;0.70;;
22191;SDS011;11261;52.456;10.850;2024-03-23T12:37:56;1.38;;;0.73;;
22191;SDS011;11261;52.456;10.850;2024-03-23T12:40:25;2.80;;;0.88;;
22191;SDS011;11261;52.456;10.850;2024-03-23T12:42:52;2.08;;;0.90;;
22191;SDS011;11261;52.456;10.850;2024-03-23T12:45:19;6.28;;;1.95;;
22191;SDS011;11261;52.456;10.850;2024-03-23T12:47:46;2.58;;;0.90;;
22191;SDS011;11261;52.456;10.850;2024-03-23T12:50:14;0.57;;;0.50;;
22191;SDS011;11261;52.456;10.850;2024-03-23T12:52:41;1.33;;;0.57;;
22191;SDS011;11261;52.456;10.850;2024-03-23T12:55:08;4.93;;;1.15;;
22191;SDS011;11261;52.456;10.850;2024-03-23T12:57:36;2.95;;;1.00;;
22191;SDS011;11261;52.456;10.850;2024-03-23T13:00:04;4.55;;;0.95;;
22191;SDS011;11261;52.456;10.850;2024-03-23T13:02:31;1.05;;;0.60;;
22191;SDS011;11261;52.456;10.850;2024-03-23T13:05:00;2.53;;;0.80;;
22191;SDS011;11261;52.456;10.850;2024-03-23T13:07:27;3.22;;;0.90;;
22191;SDS011;11261;52.456;10.850;2024-03-23T13:09:54;1.88;;;0.68;;
22191;SDS011;11261;52.456;10.850;2024-03-23T13:12:22;1.75;;;1.23;;
22191;SDS011;11261;52.456;10.850;2024-03-23T13:14:51;1.52;;;0.70;;
22191;SDS011;11261;52.456;10.850;2024-03-23T13:17:17;0.85;;;0.50;;
22191;SDS011;11261;52.456;10.850;2024-03-23T13:19:45;0.50;;;0.50;;
22191;SDS011;11261;52.456;10.850;2024-03-23T13:22:12;1.23;;;0.60;;
22191;SDS011;11261;52.456;10.850;2024-03-23T13:24:40;2.17;;;0.50;;
22191;SDS011;11261;52.456;10.850;2024-03-23T13:27:06;0.73;;;0.50;;
22191;SDS011;11261;52.456;10.850;2024-03-23T13:29:36;1.08;;;0.65;;
22191;SDS011;11261;52.456;10.850;2024-03-23T13:32:04;0.60;;;0.55;;
22191;SDS011;11261;52.456;10.850;2024-03-23T13:34:32;0.90;;;0.70;;
22191;SDS011;11261;52.456;10.850;2024-03-23T13:37:00;0.65;;;0.65;;
22191;SDS011;11261;52.456;10.850;2024-03-23T13:39:28;1.42;;;0.52;;
22191;SDS011;11261;52.456;10.850;2024-03-23T13:41:55;1.52;;;0.65;;
22191;SDS011;11261;52.456;10.850;2024-03-23T13:44:22;1.10;;;0.80;;
22191;SDS011;11261;52.456;10.850;2024-03-23T13:46:49;1.25;;;0.90;;
22191;SDS011;11261;52.456;10.850;2024-03-23T13:49:24;0.93;;;0.70;;
22191;SDS011;11261;52.456;10.850;2024-03-23T13:51:52;1.95;;;0.80;;
22191;SDS011;11261;52.456;10.850;2024-03-23T13:54:20;1.17;;;0.63;;
22191;SDS011;11261;52.456;10.850;2024-03-23T13:56:48;0.77;;;0.60;;
22191;SDS011;11261;52.456;10.850;2024-03-23T13:59:15;1.90;;;1.10;;
22191;SDS011;11261;52.456;10.850;2024-03-23T14:01:43;4.55;;;1.17;;
22191;SDS011;11261;52.456;10.850;2024-03-23T14:04:11;4.35;;;1.75;;
22191;SDS011;11261;52.456;10.850;2024-03-23T14:06:39;2.00;;;1.17;;
22191;SDS011;11261;52.456;10.850;2024-03-23T14:09:07;3.38;;;1.20;;
22191;SDS011;11261;52.456;10.850;2024-03-23T14:11:34;2.45;;;1.20;;
22191;SDS011;11261;52.456;10.850;2024-03-23T14:14:02;4.88;;;0.60;;
22191;SDS011;11261;52.456;10.850;2024-03-23T14:16:29;3.63;;;0.85;;
22191;SDS011;11261;52.456;10.850;2024-03-23T14:18:56;3.33;;;1.52;;
22191;SDS011;11261;52.456;10.850;2024-03-23T14:21:23;2.70;;;1.25;;
22191;SDS011;11261;52.456;10.850;2024-03-23T14:23:52;2.17;;;1.00;;
22191;SDS011;11261;52.456;10.850;2024-03-23T14:26:19;2.20;;;1.60;;
22191;SDS011;11261;52.456;10.850;2024-03-23T14:28:47;2.50;;;1.20;;
22191;SDS011;11261;52.456;10.850;2024-03-23T14:31:15;2.65;;;0.93;;
22191;SDS011;11261;52.456;10.850;2024-03-23T14:33:42;4.70;;;1.50;;
22191;SDS011;11261;52.456;10.850;2024-03-23T14:36:12;3.97;;;1.30;;
22191;SDS011;11261;52.456;10.850;2024-03-23T14:38:39;3.75;;;1.40;;
22191;SDS011;11261;52.456;10.850;2024-03-23T14:41:07;2.35;;;1.15;;
22191;SDS011;11261;52.456;10.850;2024-03-23T14:43:35;1.33;;;0.80;;
22191;SDS011;11261;52.456;10.850;2024-03-23T14:46:08;8.30;;;0.82;;
22191;SDS011;11261;52.456;10.850;2024-03-23T14:48:36;1.17;;;0.75;;
22191;SDS011;11261;52.456;10.850;2024-03-23T14:51:03;3.03;;;1.13;;
22191;SDS011;11261;52.456;10.850;2024-03-23T14:53:31;2.03;;;1.20;;
22191;SDS011;11261;52.456;10.850;2024-03-23T14:55:58;7.93;;;1.30;;
22191;SDS011;11261;52.456;10.850;2024-03-23T14:58:28;1.63;;;0.73;;
22191;SDS011;11261;52.456;10.850;2024-03-23T15:00:59;5.70;;;1.25;;
22191;SDS011;11261;52.456;10.850;2024-03-23T15:03:27;1.90;;;0.75;;
22191;SDS011;11261;52.456;10.850;2024-03-23T15:05:54;3.90;;;0.98;;
22191;SDS011;11261;52.456;10.850;2024-03-23T15:08:21;3.45;;;1.02;;
22191;SDS011;11261;52.456;10.850;2024-03-23T15:10:48;1.95;;;1.00;;
22191;SDS011;11261;52.456;10.850;2024-03-23T15:13:15;5.10;;;1.00;;
22191;SDS011;11261;52.456;10.850;2024-03-23T15:15:44;2.75;;;1.30;;
22191;SDS011;11261;52.456;10.850;2024-03-23T15:18:14;1.80;;;1.05;;
22191;SDS011;11261;52.456;10.850;2024-03-23T15:20:40;1.95;;;0.98;;
22191;SDS011;11261;52.456;10.850;2024-03-23T15:23:08;2.25;;;1.00;;
22191;SDS011;11261;52.456;10.850;2024-03-23T15:25:35;2.35;;;0.70;;
22191;SDS011;11261;52.456;10.850;2024-03-23T15:28:02;1.83;;;0.90;;
22191;SDS011;11261;52.456;10.850;2024-03-23T15:30:29;2.92;;;0.95;;
22191;SDS011;11261;52.456;10.850;2024-03-23T15:32:58;1.35;;;0.73;;